Cal Nev Ari, Nevada
Current Conditions -  °F | °C
As of 1:15 PM on Monday 24 Nov 2014 (Local Time) from KIFP Reporting Station
Clear Clear  
Wind Chill: 68°   Ceiling: Unl
Heat Index: 68°   Visibility: 10mi
Dew Point: 14°   Wind: 21mph
Humidity: 12%   Direction: 350°N
Pressure: 30.29"   Gusts: NA
Location:  35.46°N, 114.92°W
Report Text: KIFP 242115Z AUTO 35018KT 10SM CLR 20/M10 A3029 RMK AO2 PWINO
Loading
Personal Weather Stations






























Interactive Weather Map New forecast layout! Learn more

10-Day Weather Forecast

Advertisements
Track Severe Weather on mobile